Time;durP1;ratioP1;P1;durP2;ratioP2;P2;SDS_P1;SDS_P2;PMS_P1;PMS_P2;Temp;Humidity;BMP_temperature;BMP_pressure;BME280_temperature;BME280_humidity;BME280_pressure;Samples;Min_cycle;Max_cycle;Signal;HPM_P1;HPM_P2
2021/09/17 00:02:00;;;;;;;4.03;3.73;;;15.40;99.90;;;;;;5033732;28;20205;-62
2021/09/17 00:04:26;;;;;;;4.53;4.13;;;15.40;99.90;;;;;;5033213;28;20181;-62
2021/09/17 00:06:52;;;;;;;4.73;4.33;;;15.50;99.90;;;;;;5032956;28;20191;-62
2021/09/17 00:09:20;;;;;;;3.60;3.40;;;15.50;99.90;;;;;;5014921;28;20703;-62
2021/09/17 00:11:46;;;;;;;4.77;4.37;;;15.50;99.90;;;;;;5032537;28;20193;-62
2021/09/17 00:14:11;;;;;;;6.33;4.80;;;15.50;99.90;;;;;;5032837;28;20498;-62
2021/09/17 00:16:37;;;;;;;4.90;3.90;;;15.30;99.90;;;;;;5033108;28;20865;-62
2021/09/17 00:19:03;;;;;;;6.77;4.73;;;15.30;99.90;;;;;;5028351;28;20601;-62
2021/09/17 00:21:28;;;;;;;4.40;4.00;;;15.30;99.90;;;;;;5021289;28;20661;-61
2021/09/17 00:23:54;;;;;;;5.03;4.53;;;15.40;99.90;;;;;;5016206;28;20172;-62
2021/09/17 00:26:20;;;;;;;3.60;3.30;;;15.40;99.90;;;;;;5019415;28;20219;-61
2021/09/17 00:28:47;;;;;;;5.43;3.80;;;15.50;99.90;;;;;;5036384;28;20529;-61
2021/09/17 00:31:13;;;;;;;4.10;3.70;;;15.60;99.90;;;;;;5036495;28;20186;-61
2021/09/17 00:33:39;;;;;;;4.30;4.00;;;15.70;99.90;;;;;;5036450;28;20420;-62
2021/09/17 00:36:04;;;;;;;4.73;4.33;;;15.80;99.90;;;;;;5036388;28;20659;-62
2021/09/17 00:38:30;;;;;;;4.80;4.10;;;15.80;99.90;;;;;;5036695;28;20213;-62
2021/09/17 00:40:55;;;;;;;4.73;3.93;;;15.70;99.90;;;;;;5036062;28;20174;-62
2021/09/17 00:43:21;;;;;;;4.17;3.87;;;15.70;99.90;;;;;;5034715;28;20178;-61
2021/09/17 00:45:47;;;;;;;3.60;3.40;;;15.70;99.90;;;;;;5018835;28;20520;-62
2021/09/17 00:48:13;;;;;;;4.60;4.20;;;15.70;99.90;;;;;;5016457;28;20246;-62
2021/09/17 00:50:39;;;;;;;4.07;3.70;;;15.70;99.90;;;;;;5016332;28;20179;-62
2021/09/17 00:53:04;;;;;;;4.33;4.03;;;15.70;99.90;;;;;;5016408;28;20444;-61
2021/09/17 00:55:31;;;;;;;4.57;4.27;;;15.40;99.90;;;;;;5016122;28;20183;-62
2021/09/17 00:57:56;;;;;;;3.73;3.43;;;15.50;99.90;;;;;;5031826;28;20670;-62
2021/09/17 01:00:22;;;;;;;4.27;3.87;;;15.50;99.90;;;;;;5035898;28;20414;-61
2021/09/17 01:02:48;;;;;;;4.23;3.90;;;15.70;99.90;;;;;;5035987;28;20293;-62
2021/09/17 01:05:14;;;;;;;3.70;3.30;;;15.80;99.90;;;;;;5018086;28;20193;-62
2021/09/17 01:07:40;;;;;;;4.43;4.03;;;16.00;99.90;;;;;;5035939;28;20233;-61
2021/09/17 01:10:06;;;;;;;5.50;3.63;;;16.00;99.90;;;;;;5035765;28;20418;-61
2021/09/17 01:12:33;;;;;;;3.30;3.03;;;16.00;99.90;;;;;;5035591;28;20459;-62
2021/09/17 01:15:00;;;;;;;5.13;4.17;;;15.90;99.90;;;;;;5035897;28;20452;-61
2021/09/17 01:17:37;;;;;;;3.27;3.07;;;16.00;99.90;;;;;;5035693;28;20443;-62
2021/09/17 01:20:05;;;;;;;3.93;3.13;;;16.10;99.90;;;;;;5035581;28;20843;-63
2021/09/17 01:22:31;;;;;;;5.30;4.13;;;16.10;99.90;;;;;;5035511;28;20420;-62
2021/09/17 01:24:57;;;;;;;4.03;3.70;;;16.10;99.90;;;;;;5035775;28;20411;-62
2021/09/17 01:27:23;;;;;;;5.20;4.00;;;16.10;99.90;;;;;;5034987;28;20697;-62
2021/09/17 01:29:49;;;;;;;3.30;3.10;;;16.10;99.90;;;;;;5035460;28;20644;-62
2021/09/17 01:32:16;;;;;;;3.40;3.13;;;16.10;99.90;;;;;;5035586;28;20442;-62
2021/09/17 01:34:41;;;;;;;3.90;3.60;;;16.10;99.90;;;;;;5035252;28;20439;-63
2021/09/17 01:37:07;;;;;;;5.00;3.73;;;16.10;99.90;;;;;;5035460;28;20464;-62
2021/09/17 01:39:32;;;;;;;4.17;3.87;;;15.90;99.90;;;;;;5035338;28;20180;-61
2021/09/17 01:41:58;;;;;;;3.27;2.97;;;15.80;99.90;;;;;;5034831;28;20182;-61
2021/09/17 01:44:24;;;;;;;3.70;3.40;;;15.90;99.90;;;;;;5035281;28;20174;-62
2021/09/17 01:46:49;;;;;;;3.30;3.07;;;15.90;99.90;;;;;;5035248;28;20273;-61
2021/09/17 01:49:15;;;;;;;3.97;3.67;;;16.00;99.90;;;;;;5035195;28;20168;-62
2021/09/17 01:51:40;;;;;;;4.30;3.90;;;16.10;99.90;;;;;;5035290;28;20207;-61
2021/09/17 01:54:07;;;;;;;3.80;3.50;;;16.20;99.90;;;;;;5035300;28;20182;-61
2021/09/17 01:56:34;;;;;;;4.73;4.07;;;16.20;99.90;;;;;;5034622;28;20196;-62
2021/09/17 01:59:00;;;;;;;4.10;3.70;;;16.20;99.90;;;;;;5034144;28;20409;-62
2021/09/17 02:01:26;;;;;;;3.70;3.40;;;16.20;99.90;;;;;;5034939;28;20433;-62
2021/09/17 02:03:52;;;;;;;4.43;3.87;;;16.10;99.90;;;;;;5035051;28;20777;-62
2021/09/17 02:06:23;;;;;;;4.50;4.10;;;16.20;99.90;;;;;;5017041;28;20461;-62
2021/09/17 02:08:50;;;;;;;4.20;3.80;;;16.20;99.90;;;;;;5035029;28;20176;-62
2021/09/17 02:11:16;;;;;;;4.00;3.70;;;16.20;99.90;;;;;;5034459;28;20823;-61
2021/09/17 02:13:42;;;;;;;4.47;4.07;;;16.30;99.90;;;;;;5034471;28;20428;-62
2021/09/17 02:16:07;;;;;;;3.63;3.30;;;16.40;99.90;;;;;;5034696;28;20906;-62
2021/09/17 02:18:33;;;;;;;3.77;3.43;;;16.40;99.90;;;;;;5034866;28;20264;-61
2021/09/17 02:20:58;;;;;;;3.80;3.50;;;16.40;99.90;;;;;;5034810;28;20218;-62
2021/09/17 02:23:24;;;;;;;4.03;3.73;;;16.40;99.90;;;;;;5035026;28;20173;-62
2021/09/17 02:25:49;;;;;;;3.87;3.57;;;16.30;99.90;;;;;;5034280;28;20644;-62
2021/09/17 02:28:15;;;;;;;3.47;3.23;;;16.40;99.90;;;;;;5033902;28;20222;-62
2021/09/17 02:30:41;;;;;;;4.77;4.03;;;16.30;99.90;;;;;;5034308;28;20175;-62
2021/09/17 02:33:06;;;;;;;6.30;4.20;;;16.40;99.90;;;;;;5034298;28;20166;-62
2021/09/17 02:35:32;;;;;;;4.33;3.80;;;16.40;99.90;;;;;;5034338;28;20160;-62
2021/09/17 02:37:58;;;;;;;4.50;3.77;;;16.30;99.90;;;;;;5034719;28;20653;-62
2021/09/17 02:40:24;;;;;;;4.50;4.10;;;16.40;99.90;;;;;;5034162;28;20192;-62
2021/09/17 02:42:49;;;;;;;4.73;3.60;;;16.40;99.90;;;;;;5034095;28;20167;-62
2021/09/17 02:45:15;;;;;;;4.30;4.00;;;16.40;99.90;;;;;;5033726;28;20173;-63
2021/09/17 02:47:42;;;;;;;3.53;3.23;;;16.40;99.90;;;;;;5033956;28;20194;-62
2021/09/17 02:50:09;;;;;;;4.27;3.97;;;16.40;99.90;;;;;;5034027;28;20406;-62
2021/09/17 02:52:35;;;;;;;6.80;4.20;;;16.40;99.90;;;;;;5031039;28;20450;-62
2021/09/17 02:55:00;;;;;;;3.40;3.17;;;16.40;99.90;;;;;;5033753;28;20399;-63
2021/09/17 02:57:26;;;;;;;3.97;3.57;;;16.30;99.90;;;;;;5033377;28;20244;-63
2021/09/17 02:59:52;;;;;;;3.90;3.63;;;16.30;99.90;;;;;;5033881;28;20201;-62
2021/09/17 03:02:17;;;;;;;4.43;4.03;;;16.40;99.90;;;;;;5034085;28;20192;-62
2021/09/17 03:04:43;;;;;;;5.60;4.23;;;16.30;99.90;;;;;;5033985;28;20167;-62
2021/09/17 03:07:09;;;;;;;3.43;3.13;;;16.40;99.90;;;;;;5033564;28;20234;-62
2021/09/17 03:09:34;;;;;;;4.87;4.40;;;16.40;99.90;;;;;;5033846;28;20213;-62
2021/09/17 03:12:00;;;;;;;4.60;4.20;;;16.40;99.90;;;;;;5029942;28;20220;-63
2021/09/17 03:14:25;;;;;;;3.90;3.60;;;16.40;99.90;;;;;;5024832;28;20693;-62
2021/09/17 03:16:51;;;;;;;3.50;3.20;;;16.40;99.90;;;;;;5033572;28;20662;-62
2021/09/17 03:19:17;;;;;;;4.90;4.43;;;16.40;99.90;;;;;;5033545;28;20174;-62
2021/09/17 03:21:43;;;;;;;3.40;3.10;;;16.30;99.90;;;;;;5033470;28;20234;-62
2021/09/17 03:24:09;;;;;;;4.43;4.03;;;16.30;99.90;;;;;;5033669;28;20466;-62
2021/09/17 03:26:36;;;;;;;3.90;3.60;;;16.30;99.90;;;;;;5056396;22;20462;-57
2021/09/17 03:29:01;;;;;;;4.43;3.70;;;16.40;99.90;;;;;;5033776;28;20393;-57
2021/09/17 03:31:27;;;;;;;4.40;4.10;;;16.40;99.90;;;;;;5033392;28;20500;-58
2021/09/17 03:33:54;;;;;;;4.63;3.80;;;16.30;99.90;;;;;;5033731;28;20172;-57
2021/09/17 03:36:20;;;;;;;3.50;3.20;;;16.40;99.90;;;;;;5033699;28;20551;-59
2021/09/17 03:38:46;;;;;;;3.40;3.20;;;16.20;99.90;;;;;;5033291;28;20420;-58
2021/09/17 03:41:11;;;;;;;4.20;3.80;;;16.10;99.90;;;;;;5033443;28;20247;-57
2021/09/17 03:43:37;;;;;;;4.20;3.90;;;16.10;99.90;;;;;;5033283;28;20166;-56
2021/09/17 03:46:02;;;;;;;3.70;3.40;;;16.10;99.90;;;;;;5033275;28;20168;-58
2021/09/17 03:48:28;;;;;;;3.40;3.20;;;16.10;99.90;;;;;;5033286;28;20571;-57
2021/09/17 03:50:54;;;;;;;4.13;3.60;;;16.20;99.90;;;;;;5033297;28;20207;-57
2021/09/17 03:53:19;;;;;;;5.23;3.27;;;16.20;99.90;;;;;;5033629;28;20163;-57
2021/09/17 03:55:45;;;;;;;3.63;3.33;;;16.30;99.90;;;;;;5033123;28;20249;-58
2021/09/17 03:58:12;;;;;;;4.57;4.13;;;16.20;99.90;;;;;;5036789;28;20605;-58
2021/09/17 04:00:38;;;;;;;5.23;3.93;;;16.20;99.90;;;;;;5037668;28;20595;-57
2021/09/17 04:03:04;;;;;;;4.17;3.87;;;16.10;99.90;;;;;;5037681;28;20445;-58
2021/09/17 04:05:30;;;;;;;3.80;3.50;;;16.30;99.90;;;;;;5037208;28;20415;-58
2021/09/17 04:07:56;;;;;;;4.60;4.20;;;16.30;99.90;;;;;;5037032;28;20423;-59
2021/09/17 04:10:21;;;;;;;3.67;3.27;;;16.30;99.90;;;;;;5037116;28;20409;-57
2021/09/17 04:12:47;;;;;;;5.10;4.57;;;16.30;99.90;;;;;;5036640;28;20212;-57
2021/09/17 04:15:14;;;;;;;3.90;3.60;;;16.30;99.90;;;;;;5036974;28;20174;-57
2021/09/17 04:17:40;;;;;;;4.23;3.83;;;16.30;99.90;;;;;;5036923;28;20514;-58
2021/09/17 04:20:07;;;;;;;3.47;3.17;;;16.30;99.90;;;;;;5037225;28;20392;-60
2021/09/17 04:22:33;;;;;;;5.87;4.23;;;16.30;99.90;;;;;;5037189;28;20763;-60
2021/09/17 04:24:59;;;;;;;4.30;4.00;;;16.30;99.90;;;;;;5036856;28;20428;-58
2021/09/17 04:27:27;;;;;;;4.53;4.17;;;16.40;99.90;;;;;;5035850;28;20471;-58
2021/09/17 04:29:53;;;;;;;4.57;4.17;;;16.40;99.90;;;;;;5037253;28;20192;-59
2021/09/17 04:32:20;;;;;;;4.33;3.93;;;16.30;99.90;;;;;;5019104;28;20453;-59
2021/09/17 04:34:45;;;;;;;4.83;3.97;;;16.20;99.90;;;;;;5036972;28;20903;-59
2021/09/17 04:37:11;;;;;;;4.50;4.20;;;16.30;99.90;;;;;;5036573;28;20432;-59
2021/09/17 04:39:37;;;;;;;4.03;3.73;;;16.40;99.90;;;;;;5036725;28;20508;-59
2021/09/17 04:42:03;;;;;;;5.13;4.33;;;16.40;99.90;;;;;;5035862;28;20172;-58
2021/09/17 04:44:29;;;;;;;4.60;4.20;;;16.40;99.90;;;;;;5035498;28;20177;-60
2021/09/17 04:46:55;;;;;;;5.27;4.77;;;16.40;99.90;;;;;;5036329;28;20430;-60
2021/09/17 04:49:20;;;;;;;4.47;3.80;;;16.30;99.90;;;;;;5036752;28;20180;-59
2021/09/17 04:51:46;;;;;;;4.40;3.90;;;16.30;99.90;;;;;;5036530;28;20664;-58
2021/09/17 04:54:13;;;;;;;6.33;4.63;;;16.30;99.90;;;;;;5036489;28;20163;-57
2021/09/17 04:56:39;;;;;;;5.50;4.97;;;16.30;99.90;;;;;;5010631;28;20162;-58
2021/09/17 04:59:05;;;;;;;5.40;4.13;;;16.20;99.90;;;;;;5016124;28;20487;-59
2021/09/17 05:01:31;;;;;;;6.10;5.50;;;16.10;99.90;;;;;;5016667;28;20937;-59
2021/09/17 05:03:57;;;;;;;5.70;5.20;;;15.90;99.90;;;;;;5016409;28;20410;-58
2021/09/17 05:06:22;;;;;;;5.63;5.23;;;15.90;99.90;;;;;;5016533;28;20182;-58
2021/09/17 05:08:48;;;;;;;6.23;4.60;;;15.80;99.90;;;;;;5015829;28;20175;-57
2021/09/17 05:11:14;;;;;;;4.73;4.33;;;15.80;99.90;;;;;;5015856;28;20196;-59
2021/09/17 05:13:39;;;;;;;5.90;5.23;;;15.70;99.90;;;;;;5015782;28;20169;-59
2021/09/17 05:16:05;;;;;;;4.83;4.43;;;15.70;99.90;;;;;;5015983;28;20172;-58
2021/09/17 05:18:31;;;;;;;5.70;5.20;;;15.70;99.90;;;;;;5016133;28;20187;-55
2021/09/17 05:20:57;;;;;;;5.93;5.13;;;15.60;99.90;;;;;;5016954;28;20226;-59
2021/09/17 05:23:22;;;;;;;6.67;4.57;;;15.50;99.90;;;;;;4998200;28;20652;-59
2021/09/17 05:25:48;;;;;;;5.83;5.23;;;15.40;99.90;;;;;;5015702;28;20171;-59
2021/09/17 05:28:13;;;;;;;6.20;5.70;;;15.30;99.90;;;;;;5029402;28;20204;-58
2021/09/17 05:30:39;;;;;;;6.23;5.73;;;15.20;99.90;;;;;;5035288;28;20171;-59
2021/09/17 05:33:05;;;;;;;6.80;6.20;;;15.20;99.90;;;;;;5035420;28;20196;-58
2021/09/17 05:35:31;;;;;;;6.80;6.20;;;15.10;99.90;;;;;;5035615;28;20546;-58
2021/09/17 05:37:57;;;;;;;6.90;6.33;;;15.00;99.90;;;;;;5035323;28;20806;-58
2021/09/17 05:40:22;;;;;;;6.93;6.33;;;15.10;99.90;;;;;;5035384;28;20826;-58
2021/09/17 05:42:48;;;;;;;7.00;5.90;;;14.90;99.90;;;;;;5034810;28;20167;-59
2021/09/17 05:45:13;;;;;;;7.00;6.13;;;15.00;99.90;;;;;;5035705;28;20167;-59
2021/09/17 05:47:42;;;;;;;6.60;6.00;;;15.00;99.90;;;;;;5035247;28;20227;-59
2021/09/17 05:50:09;;;;;;;6.73;6.13;;;15.10;99.90;;;;;;5035090;28;20171;-59
2021/09/17 05:52:35;;;;;;;7.00;6.30;;;15.10;99.90;;;;;;5035167;28;20440;-59
2021/09/17 05:55:01;;;;;;;6.73;6.03;;;15.20;99.90;;;;;;5035226;28;20390;-59
2021/09/17 05:57:26;;;;;;;6.20;5.60;;;15.30;99.90;;;;;;5034566;28;20521;-59
2021/09/17 05:59:52;;;;;;;7.20;6.50;;;15.40;99.90;;;;;;5035052;28;20701;-58
2021/09/17 06:02:18;;;;;;;6.10;5.27;;;15.40;99.90;;;;;;5034914;28;20207;-59
2021/09/17 06:04:43;;;;;;;5.73;5.30;;;15.60;99.90;;;;;;5027684;28;20237;-59
2021/09/17 06:07:09;;;;;;;6.30;5.63;;;15.70;99.90;;;;;;5006135;28;20213;-58
2021/09/17 06:09:36;;;;;;;5.57;5.07;;;15.90;99.90;;;;;;5015108;28;20225;-58
2021/09/17 06:12:03;;;;;;;6.30;5.57;;;16.10;99.90;;;;;;5014686;28;20446;-59
2021/09/17 06:14:28;;;;;;;5.50;5.00;;;16.10;99.90;;;;;;5014866;28;20400;-57
2021/09/17 06:16:54;;;;;;;5.67;5.10;;;16.10;99.90;;;;;;5014919;28;20436;-58
2021/09/17 06:19:20;;;;;;;5.10;4.70;;;16.20;99.90;;;;;;5014812;28;20200;-59
2021/09/17 06:21:45;;;;;;;4.80;4.50;;;16.40;99.90;;;;;;5014259;28;20196;-59
2021/09/17 06:24:11;;;;;;;5.30;4.90;;;16.50;99.90;;;;;;5014593;28;20250;-58
2021/09/17 06:26:37;;;;;;;5.33;4.80;;;16.60;99.90;;;;;;4996498;28;20511;-59
2021/09/17 06:29:05;;;;;;;5.50;5.07;;;16.60;99.90;;;;;;5014555;28;20175;-55
2021/09/17 06:31:32;;;;;;;7.00;5.33;;;16.60;99.90;;;;;;5014540;28;20214;-58
2021/09/17 06:33:58;;;;;;;5.97;5.27;;;16.70;99.90;;;;;;5014924;28;20402;-59
2021/09/17 06:36:24;;;;;;;4.80;4.40;;;16.80;99.90;;;;;;5014306;28;20412;-58
2021/09/17 06:38:50;;;;;;;6.10;5.50;;;17.00;99.90;;;;;;5014311;28;20537;-58
2021/09/17 06:41:17;;;;;;;5.10;4.60;;;17.10;99.90;;;;;;5014232;28;20752;-59
2021/09/17 06:43:43;;;;;;;7.40;4.90;;;17.10;99.90;;;;;;5014147;28;20405;-59
2021/09/17 06:46:09;;;;;;;7.10;4.80;;;17.10;99.90;;;;;;5014798;28;20959;-59
2021/09/17 06:48:35;;;;;;;5.67;5.17;;;17.10;99.90;;;;;;5014168;28;20495;-58
2021/09/17 06:51:02;;;;;;;11.47;4.80;;;17.10;99.90;;;;;;5004080;28;20434;-58
2021/09/17 06:53:35;;;;;;;5.53;5.10;;;17.30;99.90;;;;;;4994612;28;20432;-56
2021/09/17 06:56:01;;;;;;;7.00;5.20;;;17.50;99.90;;;;;;4994171;28;20880;-58
2021/09/17 06:58:33;;;;;;;6.70;6.07;;;17.30;99.90;;;;;;5009863;28;20427;-57
2021/09/17 07:01:01;;;;;;;5.90;5.40;;;17.50;99.90;;;;;;5013919;28;20382;-58
2021/09/17 07:03:28;;;;;;;5.57;5.10;;;17.50;99.90;;;;;;5010068;28;20502;-59
2021/09/17 07:05:54;;;;;;;5.77;5.27;;;17.60;99.90;;;;;;5004339;28;20415;-59
2021/09/17 07:08:20;;;;;;;7.73;6.90;;;17.60;99.90;;;;;;5005166;28;20462;-56
2021/09/17 07:10:47;;;;;;;7.97;7.20;;;17.60;99.90;;;;;;5028066;28;20460;-57
2021/09/17 07:13:12;;;;;;;6.63;6.03;;;17.80;99.90;;;;;;5033694;28;20251;-58
2021/09/17 07:15:38;;;;;;;6.57;5.97;;;17.90;99.90;;;;;;5032514;28;20922;-59
2021/09/17 07:18:05;;;;;;;7.07;6.43;;;18.10;99.90;;;;;;5033548;28;20183;-57
2021/09/17 07:20:31;;;;;;;8.43;7.60;;;18.20;99.90;;;;;;5033450;28;20640;-59
2021/09/17 07:22:57;;;;;;;10.20;7.10;;;18.10;99.90;;;;;;5032034;28;20572;-59
2021/09/17 07:25:23;;;;;;;6.63;6.03;;;18.30;99.90;;;;;;5033789;28;20736;-57
2021/09/17 07:27:48;;;;;;;9.30;8.30;;;18.50;99.90;;;;;;5031508;28;20242;-59
2021/09/17 07:30:15;;;;;;;10.37;8.70;;;18.60;99.90;;;;;;5033211;28;20258;-55
2021/09/17 07:32:41;;;;;;;7.73;6.97;;;18.70;99.90;;;;;;5033225;28;20225;-58
2021/09/17 07:35:08;;;;;;;7.53;6.77;;;18.70;99.90;;;;;;5033615;28;20398;-59
2021/09/17 07:37:34;;;;;;;9.70;8.80;;;18.90;99.90;;;;;;5033413;28;20457;-59
2021/09/17 07:39:59;;;;;;;10.10;7.83;;;19.00;99.90;;;;;;5033276;28;20430;-58
2021/09/17 07:42:25;;;;;;;8.70;7.90;;;19.00;99.90;;;;;;5032799;28;20408;-57
2021/09/17 07:44:51;;;;;;;9.37;8.50;;;18.90;99.90;;;;;;5033352;28;20172;-59
2021/09/17 07:47:16;;;;;;;8.13;7.37;;;19.00;99.90;;;;;;5033170;28;20215;-54
2021/09/17 07:49:42;;;;;;;10.60;8.00;;;18.90;99.90;;;;;;5033218;28;20250;-58
2021/09/17 07:52:08;;;;;;;9.10;8.10;;;19.00;99.90;;;;;;5033331;28;20639;-58
2021/09/17 07:54:34;;;;;;;9.03;8.00;;;19.00;99.90;;;;;;5033839;28;20203;-59
2021/09/17 07:56:59;;;;;;;7.27;6.67;;;19.10;99.90;;;;;;5032933;28;20460;-56
2021/09/17 07:59:25;;;;;;;9.80;7.23;;;19.00;99.90;;;;;;5033251;28;20171;-59
2021/09/17 08:01:51;;;;;;;8.43;7.63;;;19.10;99.90;;;;;;5033522;28;20190;-58
2021/09/17 08:04:16;;;;;;;12.13;9.10;;;19.30;99.90;;;;;;5033028;28;20644;-58
2021/09/17 08:06:42;;;;;;;12.27;9.90;;;19.10;99.90;;;;;;5033354;28;20167;-52
2021/09/17 08:09:08;;;;;;;10.13;9.33;;;19.30;99.90;;;;;;5033384;28;20767;-55
2021/09/17 08:11:34;;;;;;;10.83;9.83;;;19.30;99.90;;;;;;5032810;28;20221;-55
2021/09/17 08:14:00;;;;;;;10.00;9.00;;;19.10;99.90;;;;;;5034264;28;20172;-55
2021/09/17 08:16:26;;;;;;;12.23;9.17;;;19.30;99.90;;;;;;5032851;28;20405;-55
2021/09/17 08:18:51;;;;;;;12.40;9.97;;;19.30;99.90;;;;;;5033008;28;20190;-58
2021/09/17 08:21:17;;;;;;;9.30;8.40;;;19.30;99.90;;;;;;5033190;28;20178;-58
2021/09/17 08:23:44;;;;;;;15.33;11.07;;;19.50;99.90;;;;;;5033134;28;20199;-58
2021/09/17 08:26:09;;;;;;;13.00;11.70;;;19.50;99.90;;;;;;5032784;28;20259;-53
2021/09/17 08:28:35;;;;;;;12.10;10.90;;;19.40;99.90;;;;;;5032620;28;20481;-57
2021/09/17 08:31:03;;;;;;;13.30;10.80;;;19.40;99.90;;;;;;5032807;28;20168;-56
2021/09/17 08:33:29;;;;;;;11.60;10.13;;;19.30;99.90;;;;;;5015046;28;20175;-57
2021/09/17 08:35:55;;;;;;;9.80;8.80;;;19.70;99.90;;;;;;5032829;28;20482;-56
2021/09/17 08:38:20;;;;;;;11.57;10.33;;;20.00;99.90;;;;;;5021922;28;20563;-54
2021/09/17 08:40:46;;;;;;;11.27;10.17;;;20.00;99.90;;;;;;4996021;28;20169;-54
2021/09/17 08:43:12;;;;;;;12.73;9.97;;;19.80;99.90;;;;;;4993295;28;20185;-57
2021/09/17 08:45:37;;;;;;;12.97;10.40;;;19.70;99.90;;;;;;4997519;28;20260;-57
2021/09/17 08:48:03;;;;;;;12.80;9.40;;;19.80;99.90;;;;;;4998831;28;20189;-57
2021/09/17 08:50:30;;;;;;;11.70;10.60;;;19.80;99.90;;;;;;4997476;28;20227;-58
2021/09/17 08:52:55;;;;;;;13.00;9.90;;;19.90;99.90;;;;;;4997827;28;20530;-56
2021/09/17 08:55:21;;;;;;;10.77;9.73;;;19.90;99.90;;;;;;4997835;28;20502;-56
2021/09/17 08:57:48;;;;;;;12.10;10.13;;;19.80;99.90;;;;;;5006327;28;20184;-57
2021/09/17 09:00:26;;;;;;;12.13;10.73;;;19.80;99.90;;;;;;5016222;28;20403;-58
2021/09/17 09:02:54;;;;;;;12.27;9.20;;;19.60;99.90;;;;;;5017265;28;20398;-58
2021/09/17 09:05:27;;;;;;;15.90;11.80;;;19.90;99.90;;;;;;4997247;28;20408;-59
2021/09/17 09:07:53;;;;;;;10.57;9.53;;;20.00;99.90;;;;;;4997395;28;20522;-58
2021/09/17 09:10:19;;;;;;;10.97;9.70;;;20.20;99.90;;;;;;4996903;28;20432;-57
2021/09/17 09:12:47;;;;;;;11.57;10.43;;;20.30;99.90;;;;;;4996887;28;20490;-55
2021/09/17 09:15:14;;;;;;;10.53;9.53;;;20.20;99.90;;;;;;4996835;28;20576;-57
2021/09/17 09:17:40;;;;;;;11.63;10.50;;;20.10;99.90;;;;;;4997047;28;20470;-55
2021/09/17 09:20:27;;;;;;;13.53;10.50;;;20.10;99.90;;;;;;4996408;28;20804;-57
2021/09/17 09:23:19;;;;;;;11.83;10.60;;;20.20;99.90;;;;;;4996837;28;20486;-57
2021/09/17 09:26:01;;;;;;;14.27;12.77;;;20.10;99.90;;;;;;4997111;28;20396;-57
2021/09/17 09:28:43;;;;;;;12.70;10.27;;;20.20;99.90;;;;;;5045731;23;20840;-63
2021/09/17 09:31:12;;;;;;;13.37;12.07;;;20.20;99.90;;;;;;5035605;28;20895;-63
2021/09/17 09:33:40;;;;;;;11.20;10.10;;;20.00;99.90;;;;;;5035441;28;20938;-62
2021/09/17 09:36:08;;;;;;;10.20;9.30;;;20.10;99.90;;;;;;5035331;28;20398;-63
2021/09/17 09:38:41;;;;;;;10.77;9.80;;;19.90;99.90;;;;;;5035537;28;20436;-62
2021/09/17 09:41:15;;;;;;;10.80;9.80;;;19.90;99.90;;;;;;5035572;28;20484;-62
2021/09/17 09:43:55;;;;;;;9.70;8.70;;;20.00;99.90;;;;;;5035120;28;20481;-62
2021/09/17 09:46:26;;;;;;;14.70;9.57;;;20.20;99.90;;;;;;5035968;28;20440;-62
2021/09/17 09:49:01;;;;;;;11.23;10.03;;;20.50;99.90;;;;;;5035197;28;20422;-62
2021/09/17 09:51:47;;;;;;;13.20;8.90;;;20.50;99.90;;;;;;5035457;28;20479;-62
2021/09/17 09:54:13;;;;;;;8.90;8.10;;;20.70;99.90;;;;;;5024362;28;20859;-62
2021/09/17 09:56:40;;;;;;;10.47;9.03;;;21.00;99.90;;;;;;5034889;28;20437;-62
2021/09/17 09:59:07;;;;;;;9.30;8.23;;;21.20;99.90;;;;;;5029576;28;20188;-63
2021/09/17 10:01:37;;;;;;;9.30;8.50;;;21.20;99.90;;;;;;5017072;28;20434;-63
2021/09/17 10:04:03;;;;;;;10.17;9.27;;;21.10;99.90;;;;;;5035221;28;20489;-63
2021/09/17 10:06:33;;;;;;;9.80;8.80;;;21.20;99.90;;;;;;5034779;28;20406;-63
2021/09/17 10:08:59;;;;;;;9.33;8.57;;;21.60;99.90;;;;;;5034675;28;20926;-63
2021/09/17 10:11:25;;;;;;;9.53;8.63;;;21.70;99.90;;;;;;5034531;28;20482;-64
2021/09/17 10:13:57;;;;;;;9.80;8.80;;;21.90;99.90;;;;;;5034367;28;20411;-63
2021/09/17 10:16:24;;;;;;;10.70;9.60;;;21.80;99.90;;;;;;5034313;28;20386;-62
2021/09/17 10:18:51;;;;;;;9.80;8.77;;;21.90;99.90;;;;;;5034525;28;20789;-63
2021/09/17 10:21:51;;;;;;;10.80;9.10;;;21.80;99.90;;;;;;5034448;28;20493;-63
2021/09/17 10:24:26;;;;;;;10.37;8.90;;;22.10;99.90;;;;;;5034641;28;20406;-63
2021/09/17 10:26:56;;;;;;;10.80;8.83;;;22.20;99.90;;;;;;5034170;28;20397;-63
2021/09/17 10:29:41;;;;;;;9.73;8.17;;;21.90;99.90;;;;;;5033991;28;20428;-63
2021/09/17 10:32:28;;;;;;;10.87;9.87;;;21.90;99.90;;;;;;5034446;28;20477;-63
2021/09/17 10:35:09;;;;;;;9.77;8.87;;;22.00;99.90;;;;;;5034066;28;20919;-63
2021/09/17 10:37:47;;;;;;;8.60;7.80;;;21.60;99.90;;;;;;5034317;28;20852;-63
2021/09/17 10:40:13;;;;;;;10.87;8.03;;;21.70;99.90;;;;;;5034157;28;20409;-62
2021/09/17 10:42:59;;;;;;;9.80;8.80;;;21.90;99.90;;;;;;5031813;28;20491;-62
2021/09/17 10:45:24;;;;;;;10.50;7.70;;;21.80;99.90;;;;;;5014441;28;20411;-62
2021/09/17 10:47:54;;;;;;;9.07;8.27;;;21.80;99.90;;;;;;5014763;28;20433;-62
2021/09/17 10:50:36;;;;;;;13.30;9.63;;;21.70;99.90;;;;;;5015303;28;20668;-62
2021/09/17 10:53:01;;;;;;;10.57;9.07;;;21.00;99.90;;;;;;5014061;28;20434;-62
2021/09/17 10:55:45;;;;;;;7.97;7.27;;;21.30;99.90;;;;;;5014317;28;20942;-62
2021/09/17 10:58:26;;;;;;;7.97;7.27;;;21.60;99.90;;;;;;5023740;28;20568;-63
2021/09/17 11:01:10;;;;;;;8.27;7.20;;;21.60;99.90;;;;;;5033945;28;20382;-62
2021/09/17 11:03:36;;;;;;;9.80;8.37;;;21.50;99.90;;;;;;5034331;28;20778;-62
2021/09/17 11:08:46;;;;;;;8.83;7.00;;;21.20;99.90;;;;;;5033992;28;20244;-62
2021/09/17 11:11:30;;;;;;;7.50;6.40;;;21.20;99.90;;;;;;5033452;28;20464;-63
2021/09/17 11:14:02;;;;;;;8.90;7.90;;;21.20;99.90;;;;;;5032902;28;20460;-62
2021/09/17 11:16:29;;;;;;;7.67;6.97;;;21.20;99.90;;;;;;5033907;28;20397;-62
2021/09/17 11:19:00;;;;;;;9.20;7.20;;;21.40;99.90;;;;;;5033435;28;20430;-63
2021/09/17 11:21:30;;;;;;;10.87;9.40;;;21.30;99.90;;;;;;5033739;28;20470;-63
2021/09/17 11:23:57;;;;;;;9.53;7.97;;;21.40;99.90;;;;;;5033468;28;20899;-62
2021/09/17 11:26:26;;;;;;;8.57;7.70;;;21.60;99.90;;;;;;5033665;28;20409;-62
2021/09/17 11:28:58;;;;;;;9.13;7.53;;;21.50;99.90;;;;;;5032764;28;20890;-63
2021/09/17 11:31:28;;;;;;;10.50;7.90;;;21.30;99.90;;;;;;5033380;28;20449;-63
2021/09/17 11:33:57;;;;;;;7.30;6.60;;;21.10;99.90;;;;;;5033262;28;20497;-63
2021/09/17 11:36:39;;;;;;;7.20;6.50;;;21.30;99.90;;;;;;5033320;28;20412;-62
2021/09/17 11:39:13;;;;;;;5.53;5.03;;;21.50;99.90;;;;;;5033206;28;20535;-63
2021/09/17 11:41:40;;;;;;;8.87;7.50;;;21.60;99.90;;;;;;5032914;28;20407;-63
2021/09/17 11:44:05;;;;;;;6.90;6.30;;;21.50;99.90;;;;;;5032903;28;20410;-62
2021/09/17 11:46:31;;;;;;;6.40;5.50;;;21.60;99.90;;;;;;5033304;28;20976;-63
2021/09/17 11:48:57;;;;;;;5.60;5.00;;;21.80;99.90;;;;;;5032962;28;20222;-63
2021/09/17 11:51:23;;;;;;;5.50;4.90;;;21.70;99.90;;;;;;5032931;28;20190;-62
2021/09/17 11:53:48;;;;;;;6.77;5.50;;;21.70;99.90;;;;;;5033278;28;20913;-63
2021/09/17 11:56:14;;;;;;;5.03;4.63;;;22.10;99.90;;;;;;5033601;28;20620;-63
2021/09/17 11:58:47;;;;;;;6.07;5.30;;;22.30;99.90;;;;;;5032413;28;20206;-63
2021/09/17 12:01:23;;;;;;;5.90;5.40;;;22.20;99.90;;;;;;5033222;28;20411;-63
2021/09/17 12:03:50;;;;;;;6.20;5.70;;;22.20;99.90;;;;;;5033225;28;20386;-63
2021/09/17 12:06:17;;;;;;;5.63;5.03;;;22.10;99.90;;;;;;5015323;28;20402;-63
2021/09/17 12:08:44;;;;;;;5.50;5.00;;;22.10;99.90;;;;;;5033450;28;20430;-63
2021/09/17 12:11:10;;;;;;;5.30;4.90;;;22.20;99.90;;;;;;5033020;28;20406;-63
2021/09/17 12:13:36;;;;;;;4.63;4.23;;;22.00;99.90;;;;;;5032438;28;20456;-63
2021/09/17 12:16:06;;;;;;;3.63;3.27;;;21.70;99.30;;;;;;5032805;28;20406;-63
2021/09/17 12:18:32;;;;;;;3.57;3.27;;;22.00;98.60;;;;;;5033946;28;20274;-63
2021/09/17 12:21:03;;;;;;;4.03;3.63;;;22.30;97.80;;;;;;5036927;28;20482;-63
2021/09/17 12:23:38;;;;;;;4.10;3.70;;;22.80;97.80;;;;;;5036754;28;20179;-63
2021/09/17 12:26:23;;;;;;;3.30;2.63;;;22.60;98.30;;;;;;5037137;28;20400;-63
2021/09/17 12:28:53;;;;;;;3.47;3.17;;;22.90;96.50;;;;;;5035950;28;20473;-63
2021/09/17 12:31:33;;;;;;;3.33;3.03;;;23.00;95.70;;;;;;5036650;28;20408;-63
2021/09/17 12:34:06;;;;;;;4.07;3.00;;;23.40;95.60;;;;;;5036658;28;20414;-63
2021/09/17 12:36:33;;;;;;;3.83;3.53;;;23.50;95.00;;;;;;5037162;28;20406;-63
2021/09/17 12:39:04;;;;;;;3.10;2.80;;;23.80;95.20;;;;;;5036685;28;20837;-63
2021/09/17 12:41:30;;;;;;;3.30;2.47;;;23.60;94.60;;;;;;5036577;28;20402;-63
2021/09/17 12:44:10;;;;;;;3.00;2.70;;;23.80;94.70;;;;;;5030628;28;20410;-63
2021/09/17 12:46:42;;;;;;;3.13;2.90;;;24.00;95.60;;;;;;5016614;28;20176;-63
2021/09/17 12:49:09;;;;;;;2.63;2.43;;;24.30;97.10;;;;;;5016819;28;20900;-62